This is the latest recevied weather packets stored in our database for station/object IT9FDP-13. If no packets are shown the sender has not sent any weather packets the latest 10 day(s).
| Time | Temp. | Humidity | Pressure | Rain* | Wind** | Luminosity | Snow |
|---|---|---|---|---|---|---|---|
| 1777924225 | 17.78° C | 73% | 1017.9 hPa | 0 mm | - | - | - |
| 1777923325 | 17.78° C | 74% | 1017.7 hPa | 0 mm | - | - | - |
| 1777919423 | 17.78° C | 73% | 1017.1 hPa | 0 mm | - | - | - |
| 1777917942 | 17.78° C | 73% | 1017.2 hPa | 0 mm | - | - | - |
| 1777909525 | 18.33° C | 66% | 1017 hPa | 0 mm | - | - | - |
| 1777908939 | 18.33° C | 64% | 1017.1 hPa | 0 mm | - | - | - |
| 1777907727 | 18.89° C | 60% | 1017 hPa | 0 mm | - | - | - |
| 1777906224 | 18.89° C | 58% | 1017.1 hPa | 0 mm | - | - | - |
| 1777904424 | 19.44° C | 56% | 1017.4 hPa | 0 mm | - | - | - |
| 1777900536 | 20° C | 58% | 1017.9 hPa | 0 mm | - | - | - |
| 1777899316 | 20.56° C | 60% | 1018 hPa | 0 mm | - | - | - |
| 1777898417 | 21.11° C | 61% | 1018.2 hPa | 0 mm | - | - | - |
| 1777897521 | 20.56° C | 62% | 1018.3 hPa | 0 mm | - | - | - |
| 1777894223 | 20.56° C | 63% | 1018.5 hPa | 0 mm | - | - | - |
| 1777893623 | 19.44° C | 64% | 1018.4 hPa | 0 mm | - | - | - |
| 1777893319 | 19.44° C | 64% | 1018.4 hPa | 0 mm | - | - | - |
| 1777892423 | 20° C | 63% | 1018.6 hPa | 0 mm | - | - | - |
| 1777890019 | 21.11° C | 57% | 1018.9 hPa | 0 mm | - | - | - |
| 1777889427 | 21.67° C | 57% | 1019 hPa | 0 mm | - | - | - |
| 1777887638 | 21.11° C | 58% | 1019.2 hPa | 0 mm | - | - | - |
| 1777887023 | 20.56° C | 61% | 1019.1 hPa | 0 mm | - | - | - |
| 1777885527 | 20° C | 64% | 1019 hPa | 0 mm | - | - | - |
| 1777883724 | 20° C | 62% | 1019.2 hPa | 0 mm | - | - | - |
| 1777883117 | 20° C | 61% | 1019.3 hPa | 0 mm | - | - | - |
| 1777880717 | 21.11° C | 49% | 1019.3 hPa | 0 mm | - | - | - |
* Rain latest hour (hover to see other rain measurements)
** Current wind speed in m/s (hover to see current wind gust speed)